sensor_id;sensor_type;location;lat;lon;timestamp;temperature;humidity
13561;DHT22;6852;51.686;5.314;2023-06-10T00:01:24;23.60;99.90
13561;DHT22;6852;51.686;5.314;2023-06-10T00:03:51;23.70;99.90
13561;DHT22;6852;51.686;5.314;2023-06-10T00:06:19;23.50;99.90
13561;DHT22;6852;51.686;5.314;2023-06-10T00:08:48;23.50;99.90
13561;DHT22;6852;51.686;5.314;2023-06-10T00:11:15;23.50;99.90
13561;DHT22;6852;51.686;5.314;2023-06-10T00:13:44;23.50;99.90
13561;DHT22;6852;51.686;5.314;2023-06-10T00:16:12;23.40;99.90
13561;DHT22;6852;51.686;5.314;2023-06-10T00:18:39;23.40;99.90
13561;DHT22;6852;51.686;5.314;2023-06-10T00:21:06;23.40;99.90
13561;DHT22;6852;51.686;5.314;2023-06-10T00:23:35;23.40;99.90
13561;DHT22;6852;51.686;5.314;2023-06-10T00:26:05;23.30;99.90
13561;DHT22;6852;51.686;5.314;2023-06-10T00:28:32;23.30;99.90
13561;DHT22;6852;51.686;5.314;2023-06-10T00:30:59;23.20;99.90
13561;DHT22;6852;51.686;5.314;2023-06-10T00:33:26;23.20;99.90
13561;DHT22;6852;51.686;5.314;2023-06-10T00:35:52;23.10;99.90
13561;DHT22;6852;51.686;5.314;2023-06-10T00:38:20;23.20;99.90
13561;DHT22;6852;51.686;5.314;2023-06-10T00:40:47;23.20;99.90
13561;DHT22;6852;51.686;5.314;2023-06-10T00:43:14;23.10;99.90
13561;DHT22;6852;51.686;5.314;2023-06-10T00:45:41;23.10;99.90
13561;DHT22;6852;51.686;5.314;2023-06-10T00:48:10;23.00;99.90
13561;DHT22;6852;51.686;5.314;2023-06-10T00:50:37;23.00;99.90
13561;DHT22;6852;51.686;5.314;2023-06-10T00:53:08;23.00;99.90
13561;DHT22;6852;51.686;5.314;2023-06-10T00:55:35;22.90;99.90
13561;DHT22;6852;51.686;5.314;2023-06-10T00:58:03;22.80;99.90
13561;DHT22;6852;51.686;5.314;2023-06-10T01:00:31;22.80;99.90
13561;DHT22;6852;51.686;5.314;2023-06-10T01:02:58;22.80;99.90
13561;DHT22;6852;51.686;5.314;2023-06-10T01:05:25;22.80;99.90
13561;DHT22;6852;51.686;5.314;2023-06-10T01:08:09;22.70;99.90
13561;DHT22;6852;51.686;5.314;2023-06-10T01:10:50;22.70;99.90
13561;DHT22;6852;51.686;5.314;2023-06-10T01:13:20;22.70;99.90
13561;DHT22;6852;51.686;5.314;2023-06-10T01:15:51;22.60;99.90
13561;DHT22;6852;51.686;5.314;2023-06-10T01:18:18;22.50;99.90
13561;DHT22;6852;51.686;5.314;2023-06-10T01:20:46;22.40;99.90
13561;DHT22;6852;51.686;5.314;2023-06-10T01:23:17;22.40;99.90
13561;DHT22;6852;51.686;5.314;2023-06-10T01:25:49;22.40;99.90
13561;DHT22;6852;51.686;5.314;2023-06-10T01:28:38;22.40;99.90
13561;DHT22;6852;51.686;5.314;2023-06-10T01:31:33;22.30;99.90
13561;DHT22;6852;51.686;5.314;2023-06-10T01:34:09;22.30;99.90
13561;DHT22;6852;51.686;5.314;2023-06-10T01:36:38;22.30;99.90
13561;DHT22;6852;51.686;5.314;2023-06-10T01:39:17;22.30;99.90
13561;DHT22;6852;51.686;5.314;2023-06-10T01:41:48;22.20;99.90
13561;DHT22;6852;51.686;5.314;2023-06-10T01:44:21;22.10;99.90
13561;DHT22;6852;51.686;5.314;2023-06-10T01:46:51;22.00;99.90
13561;DHT22;6852;51.686;5.314;2023-06-10T01:49:22;22.00;99.90
13561;DHT22;6852;51.686;5.314;2023-06-10T01:51:53;22.00;99.90
13561;DHT22;6852;51.686;5.314;2023-06-10T01:54:23;21.90;99.90
13561;DHT22;6852;51.686;5.314;2023-06-10T01:56:50;21.90;99.90
13561;DHT22;6852;51.686;5.314;2023-06-10T01:59:17;21.90;99.90
13561;DHT22;6852;51.686;5.314;2023-06-10T02:01:46;21.80;99.90
13561;DHT22;6852;51.686;5.314;2023-06-10T02:04:13;21.80;99.90
13561;DHT22;6852;51.686;5.314;2023-06-10T02:06:40;21.80;99.90
13561;DHT22;6852;51.686;5.314;2023-06-10T02:09:08;21.80;99.90
13561;DHT22;6852;51.686;5.314;2023-06-10T02:11:35;21.80;99.90
13561;DHT22;6852;51.686;5.314;2023-06-10T02:14:02;21.80;99.90
13561;DHT22;6852;51.686;5.314;2023-06-10T02:16:30;21.70;99.90
13561;DHT22;6852;51.686;5.314;2023-06-10T02:18:58;21.70;99.90
13561;DHT22;6852;51.686;5.314;2023-06-10T02:21:25;21.70;99.90
13561;DHT22;6852;51.686;5.314;2023-06-10T02:23:52;21.70;99.90
13561;DHT22;6852;51.686;5.314;2023-06-10T02:26:28;21.60;99.90
13561;DHT22;6852;51.686;5.314;2023-06-10T02:28:56;21.70;99.90
13561;DHT22;6852;51.686;5.314;2023-06-10T02:31:23;21.60;99.90
13561;DHT22;6852;51.686;5.314;2023-06-10T02:33:51;21.70;99.90
13561;DHT22;6852;51.686;5.314;2023-06-10T02:36:19;21.70;99.90
13561;DHT22;6852;51.686;5.314;2023-06-10T02:38:50;21.70;99.90
13561;DHT22;6852;51.686;5.314;2023-06-10T02:41:17;21.60;99.90
13561;DHT22;6852;51.686;5.314;2023-06-10T02:43:45;21.60;99.90
13561;DHT22;6852;51.686;5.314;2023-06-10T02:46:11;21.50;99.90
13561;DHT22;6852;51.686;5.314;2023-06-10T02:48:43;21.50;99.90
13561;DHT22;6852;51.686;5.314;2023-06-10T02:51:13;21.30;99.90
13561;DHT22;6852;51.686;5.314;2023-06-10T02:53:40;21.30;99.90
13561;DHT22;6852;51.686;5.314;2023-06-10T02:56:08;21.50;99.90
13561;DHT22;6852;51.686;5.314;2023-06-10T02:58:35;21.40;99.90
13561;DHT22;6852;51.686;5.314;2023-06-10T03:01:02;21.40;99.90
13561;DHT22;6852;51.686;5.314;2023-06-10T03:03:29;21.40;99.90
13561;DHT22;6852;51.686;5.314;2023-06-10T03:05:57;21.40;99.90
13561;DHT22;6852;51.686;5.314;2023-06-10T03:08:29;21.30;99.90
13561;DHT22;6852;51.686;5.314;2023-06-10T03:10:57;21.30;99.90
13561;DHT22;6852;51.686;5.314;2023-06-10T03:13:24;21.20;99.90
13561;DHT22;6852;51.686;5.314;2023-06-10T03:15:52;21.20;99.90
13561;DHT22;6852;51.686;5.314;2023-06-10T03:18:25;21.20;99.90
13561;DHT22;6852;51.686;5.314;2023-06-10T03:20:53;21.20;99.90
13561;DHT22;6852;51.686;5.314;2023-06-10T03:23:20;21.10;99.90
13561;DHT22;6852;51.686;5.314;2023-06-10T03:25:48;21.20;99.90
13561;DHT22;6852;51.686;5.314;2023-06-10T03:28:15;21.10;99.90
13561;DHT22;6852;51.686;5.314;2023-06-10T03:30:42;21.10;99.90
13561;DHT22;6852;51.686;5.314;2023-06-10T03:33:09;21.00;99.90
13561;DHT22;6852;51.686;5.314;2023-06-10T03:35:37;21.10;99.90
13561;DHT22;6852;51.686;5.314;2023-06-10T03:38:07;21.00;99.90
13561;DHT22;6852;51.686;5.314;2023-06-10T03:40:34;20.90;99.90
13561;DHT22;6852;51.686;5.314;2023-06-10T03:43:04;20.90;99.90
13561;DHT22;6852;51.686;5.314;2023-06-10T03:45:31;20.90;99.90
13561;DHT22;6852;51.686;5.314;2023-06-10T03:48:00;20.80;99.90
13561;DHT22;6852;51.686;5.314;2023-06-10T03:50:27;20.80;99.90
13561;DHT22;6852;51.686;5.314;2023-06-10T03:52:54;20.80;99.90
13561;DHT22;6852;51.686;5.314;2023-06-10T03:55:27;20.80;99.90
13561;DHT22;6852;51.686;5.314;2023-06-10T03:57:53;20.70;99.90
13561;DHT22;6852;51.686;5.314;2023-06-10T04:00:20;20.80;99.90
13561;DHT22;6852;51.686;5.314;2023-06-10T04:02:48;20.70;99.90
13561;DHT22;6852;51.686;5.314;2023-06-10T04:05:19;20.70;99.90
13561;DHT22;6852;51.686;5.314;2023-06-10T04:07:50;20.60;99.90
13561;DHT22;6852;51.686;5.314;2023-06-10T04:10:17;20.60;99.90
13561;DHT22;6852;51.686;5.314;2023-06-10T04:12:44;20.50;99.90
13561;DHT22;6852;51.686;5.314;2023-06-10T04:15:11;20.50;99.90
13561;DHT22;6852;51.686;5.314;2023-06-10T04:17:40;20.60;99.90
13561;DHT22;6852;51.686;5.314;2023-06-10T04:20:08;20.60;99.90
13561;DHT22;6852;51.686;5.314;2023-06-10T04:22:38;20.70;99.90
13561;DHT22;6852;51.686;5.314;2023-06-10T04:25:05;20.70;99.90
13561;DHT22;6852;51.686;5.314;2023-06-10T04:27:35;20.60;99.90
13561;DHT22;6852;51.686;5.314;2023-06-10T04:30:03;20.50;99.90
13561;DHT22;6852;51.686;5.314;2023-06-10T04:32:31;20.60;99.90
13561;DHT22;6852;51.686;5.314;2023-06-10T04:34:59;20.60;99.90
13561;DHT22;6852;51.686;5.314;2023-06-10T04:37:26;20.50;99.90
13561;DHT22;6852;51.686;5.314;2023-06-10T04:39:55;20.50;99.90
13561;DHT22;6852;51.686;5.314;2023-06-10T04:42:37;20.50;99.90
13561;DHT22;6852;51.686;5.314;2023-06-10T04:45:05;20.50;99.90
13561;DHT22;6852;51.686;5.314;2023-06-10T04:47:33;20.60;99.90
13561;DHT22;6852;51.686;5.314;2023-06-10T04:50:01;20.50;99.90
13561;DHT22;6852;51.686;5.314;2023-06-10T04:52:28;20.50;99.90
13561;DHT22;6852;51.686;5.314;2023-06-10T04:54:56;20.70;99.90
13561;DHT22;6852;51.686;5.314;2023-06-10T04:57:23;20.80;99.90
13561;DHT22;6852;51.686;5.314;2023-06-10T04:59:50;20.70;99.90
13561;DHT22;6852;51.686;5.314;2023-06-10T05:02:17;20.70;99.90
13561;DHT22;6852;51.686;5.314;2023-06-10T05:04:47;20.80;99.90
13561;DHT22;6852;51.686;5.314;2023-06-10T05:07:16;20.90;99.90
13561;DHT22;6852;51.686;5.314;2023-06-10T05:09:46;20.90;99.90
13561;DHT22;6852;51.686;5.314;2023-06-10T05:12:17;20.90;99.90
13561;DHT22;6852;51.686;5.314;2023-06-10T05:14:44;20.90;99.90
13561;DHT22;6852;51.686;5.314;2023-06-10T05:17:11;21.00;99.90
13561;DHT22;6852;51.686;5.314;2023-06-10T05:19:42;21.00;99.90
13561;DHT22;6852;51.686;5.314;2023-06-10T05:22:16;21.20;99.90
13561;DHT22;6852;51.686;5.314;2023-06-10T05:24:44;21.20;99.90
13561;DHT22;6852;51.686;5.314;2023-06-10T05:27:14;21.30;99.90
13561;DHT22;6852;51.686;5.314;2023-06-10T05:29:46;21.20;99.90
13561;DHT22;6852;51.686;5.314;2023-06-10T05:32:13;21.10;99.90
13561;DHT22;6852;51.686;5.314;2023-06-10T05:34:40;21.30;99.90
13561;DHT22;6852;51.686;5.314;2023-06-10T05:37:07;21.50;99.90
13561;DHT22;6852;51.686;5.314;2023-06-10T05:39:35;21.60;99.90
13561;DHT22;6852;51.686;5.314;2023-06-10T05:42:08;21.60;99.90
13561;DHT22;6852;51.686;5.314;2023-06-10T05:44:37;21.70;99.90
13561;DHT22;6852;51.686;5.314;2023-06-10T05:47:04;21.70;99.90
13561;DHT22;6852;51.686;5.314;2023-06-10T05:49:32;21.80;99.90
13561;DHT22;6852;51.686;5.314;2023-06-10T05:51:59;21.90;99.90
13561;DHT22;6852;51.686;5.314;2023-06-10T05:54:26;21.80;99.90
13561;DHT22;6852;51.686;5.314;2023-06-10T05:56:56;21.60;99.90
13561;DHT22;6852;51.686;5.314;2023-06-10T05:59:23;21.80;99.90
13561;DHT22;6852;51.686;5.314;2023-06-10T06:01:52;21.80;99.90
13561;DHT22;6852;51.686;5.314;2023-06-10T06:04:25;21.90;99.90
13561;DHT22;6852;51.686;5.314;2023-06-10T06:06:52;21.90;99.90
13561;DHT22;6852;51.686;5.314;2023-06-10T06:09:20;21.90;99.90
13561;DHT22;6852;51.686;5.314;2023-06-10T06:11:47;22.00;99.90
13561;DHT22;6852;51.686;5.314;2023-06-10T06:14:14;22.10;99.90
13561;DHT22;6852;51.686;5.314;2023-06-10T06:16:41;22.10;99.90
13561;DHT22;6852;51.686;5.314;2023-06-10T06:19:08;22.10;99.90
13561;DHT22;6852;51.686;5.314;2023-06-10T06:21:37;22.00;99.90
13561;DHT22;6852;51.686;5.314;2023-06-10T06:24:05;22.20;99.90
13561;DHT22;6852;51.686;5.314;2023-06-10T06:26:32;22.20;99.90
13561;DHT22;6852;51.686;5.314;2023-06-10T06:28:59;22.30;99.90
13561;DHT22;6852;51.686;5.314;2023-06-10T06:31:26;22.30;99.90
13561;DHT22;6852;51.686;5.314;2023-06-10T06:33:53;22.60;99.90
13561;DHT22;6852;51.686;5.314;2023-06-10T06:36:20;22.60;99.90
13561;DHT22;6852;51.686;5.314;2023-06-10T06:38:47;22.70;99.90
13561;DHT22;6852;51.686;5.314;2023-06-10T06:41:14;22.90;99.90
13561;DHT22;6852;51.686;5.314;2023-06-10T06:43:41;23.00;99.90
13561;DHT22;6852;51.686;5.314;2023-06-10T06:46:09;23.10;99.90
13561;DHT22;6852;51.686;5.314;2023-06-10T06:48:36;23.20;99.90
13561;DHT22;6852;51.686;5.314;2023-06-10T06:51:04;23.30;99.90
13561;DHT22;6852;51.686;5.314;2023-06-10T06:53:31;23.40;99.90
13561;DHT22;6852;51.686;5.314;2023-06-10T06:55:58;23.40;99.90
13561;DHT22;6852;51.686;5.314;2023-06-10T06:58:25;23.50;99.90
13561;DHT22;6852;51.686;5.314;2023-06-10T07:00:52;23.80;99.90
13561;DHT22;6852;51.686;5.314;2023-06-10T07:03:22;24.00;99.90
13561;DHT22;6852;51.686;5.314;2023-06-10T07:05:49;24.10;99.90
13561;DHT22;6852;51.686;5.314;2023-06-10T07:08:16;24.20;99.90
13561;DHT22;6852;51.686;5.314;2023-06-10T07:10:43;24.40;99.90
13561;DHT22;6852;51.686;5.314;2023-06-10T07:13:10;24.50;99.90
13561;DHT22;6852;51.686;5.314;2023-06-10T07:15:41;24.60;99.90
13561;DHT22;6852;51.686;5.314;2023-06-10T07:18:08;24.80;99.90
13561;DHT22;6852;51.686;5.314;2023-06-10T07:20:35;25.00;99.90
13561;DHT22;6852;51.686;5.314;2023-06-10T07:23:02;25.20;99.90
13561;DHT22;6852;51.686;5.314;2023-06-10T07:25:29;25.30;99.90
13561;DHT22;6852;51.686;5.314;2023-06-10T07:27:56;25.50;99.90
13561;DHT22;6852;51.686;5.314;2023-06-10T07:30:23;25.50;99.90
13561;DHT22;6852;51.686;5.314;2023-06-10T07:32:56;25.40;99.90
13561;DHT22;6852;51.686;5.314;2023-06-10T07:35:23;25.50;99.90
13561;DHT22;6852;51.686;5.314;2023-06-10T07:37:50;25.60;99.90
13561;DHT22;6852;51.686;5.314;2023-06-10T07:40:17;25.80;99.90
13561;DHT22;6852;51.686;5.314;2023-06-10T07:42:44;25.80;99.90
13561;DHT22;6852;51.686;5.314;2023-06-10T07:45:11;25.90;99.90
13561;DHT22;6852;51.686;5.314;2023-06-10T07:47:38;26.40;99.90
13561;DHT22;6852;51.686;5.314;2023-06-10T07:50:05;26.30;99.90
13561;DHT22;6852;51.686;5.314;2023-06-10T07:52:35;26.20;99.90
13561;DHT22;6852;51.686;5.314;2023-06-10T07:55:11;26.20;99.90
13561;DHT22;6852;51.686;5.314;2023-06-10T07:57:38;26.20;99.90
13561;DHT22;6852;51.686;5.314;2023-06-10T08:00:06;26.50;99.90
13561;DHT22;6852;51.686;5.314;2023-06-10T08:02:33;26.60;99.90
13561;DHT22;6852;51.686;5.314;2023-06-10T08:05:00;26.80;99.90
13561;DHT22;6852;51.686;5.314;2023-06-10T08:07:27;27.00;99.90
13561;DHT22;6852;51.686;5.314;2023-06-10T08:09:54;27.00;99.90
13561;DHT22;6852;51.686;5.314;2023-06-10T08:12:21;27.10;99.90
13561;DHT22;6852;51.686;5.314;2023-06-10T08:14:48;27.10;99.90
13561;DHT22;6852;51.686;5.314;2023-06-10T08:17:15;27.30;99.90
13561;DHT22;6852;51.686;5.314;2023-06-10T08:19:42;27.60;99.90
13561;DHT22;6852;51.686;5.314;2023-06-10T08:22:09;27.20;99.90
13561;DHT22;6852;51.686;5.314;2023-06-10T08:24:37;27.20;99.90
13561;DHT22;6852;51.686;5.314;2023-06-10T08:27:04;27.30;99.90
13561;DHT22;6852;51.686;5.314;2023-06-10T08:29:32;27.10;99.90
13561;DHT22;6852;51.686;5.314;2023-06-10T08:32:00;27.60;99.90
13561;DHT22;6852;51.686;5.314;2023-06-10T08:34:27;28.40;99.90
13561;DHT22;6852;51.686;5.314;2023-06-10T08:36:54;29.90;99.90
13561;DHT22;6852;51.686;5.314;2023-06-10T08:39:22;30.20;99.90
13561;DHT22;6852;51.686;5.314;2023-06-10T08:44:36;29.50;99.90
13561;DHT22;6852;51.686;5.314;2023-06-10T08:47:14;29.70;99.90
13561;DHT22;6852;51.686;5.314;2023-06-10T08:49:46;30.80;99.90
13561;DHT22;6852;51.686;5.314;2023-06-10T08:52:17;30.80;99.90
13561;DHT22;6852;51.686;5.314;2023-06-10T08:54:59;30.60;99.90
13561;DHT22;6852;51.686;5.314;2023-06-10T08:57:27;31.20;99.90
13561;DHT22;6852;51.686;5.314;2023-06-10T08:59:56;31.80;99.90
13561;DHT22;6852;51.686;5.314;2023-06-10T09:02:24;32.00;99.90
13561;DHT22;6852;51.686;5.314;2023-06-10T09:04:52;31.90;99.90
13561;DHT22;6852;51.686;5.314;2023-06-10T09:07:20;31.90;99.90
13561;DHT22;6852;51.686;5.314;2023-06-10T09:09:49;31.50;99.90
13561;DHT22;6852;51.686;5.314;2023-06-10T09:12:17;31.90;99.90
13561;DHT22;6852;51.686;5.314;2023-06-10T09:14:43;32.30;99.90
13561;DHT22;6852;51.686;5.314;2023-06-10T09:17:10;31.60;99.90
13561;DHT22;6852;51.686;5.314;2023-06-10T09:19:38;31.50;99.90
13561;DHT22;6852;51.686;5.314;2023-06-10T09:22:06;31.70;99.90
13561;DHT22;6852;51.686;5.314;2023-06-10T09:24:34;30.80;99.90
13561;DHT22;6852;51.686;5.314;2023-06-10T09:27:08;31.30;99.90
13561;DHT22;6852;51.686;5.314;2023-06-10T09:29:51;31.50;99.90
13561;DHT22;6852;51.686;5.314;2023-06-10T09:32:19;31.30;99.90
13561;DHT22;6852;51.686;5.314;2023-06-10T09:34:47;31.80;99.90
13561;DHT22;6852;51.686;5.314;2023-06-10T09:37:20;31.70;99.90
13561;DHT22;6852;51.686;5.314;2023-06-10T09:40:07;31.30;99.90
13561;DHT22;6852;51.686;5.314;2023-06-10T09:42:37;31.70;99.90
13561;DHT22;6852;51.686;5.314;2023-06-10T09:45:06;32.10;99.90
13561;DHT22;6852;51.686;5.314;2023-06-10T09:47:34;32.10;99.90
13561;DHT22;6852;51.686;5.314;2023-06-10T09:50:01;31.30;99.90
13561;DHT22;6852;51.686;5.314;2023-06-10T09:52:29;32.00;99.90
13561;DHT22;6852;51.686;5.314;2023-06-10T09:55:01;31.90;99.90
13561;DHT22;6852;51.686;5.314;2023-06-10T09:57:32;32.30;99.90
13561;DHT22;6852;51.686;5.314;2023-06-10T10:00:10;31.90;99.90
13561;DHT22;6852;51.686;5.314;2023-06-10T10:02:48;32.20;99.90
13561;DHT22;6852;51.686;5.314;2023-06-10T10:05:18;31.50;99.90
13561;DHT22;6852;51.686;5.314;2023-06-10T10:07:45;31.70;99.90
13561;DHT22;6852;51.686;5.314;2023-06-10T10:10:14;31.10;99.90
13561;DHT22;6852;51.686;5.314;2023-06-10T10:12:42;31.40;99.90
13561;DHT22;6852;51.686;5.314;2023-06-10T10:15:11;31.70;99.90
13561;DHT22;6852;51.686;5.314;2023-06-10T10:17:49;31.30;99.90
13561;DHT22;6852;51.686;5.314;2023-06-10T10:20:20;31.40;99.90
13561;DHT22;6852;51.686;5.314;2023-06-10T10:22:50;31.60;99.90
13561;DHT22;6852;51.686;5.314;2023-06-10T10:25:32;31.60;99.90
13561;DHT22;6852;51.686;5.314;2023-06-10T10:28:11;31.70;99.90
13561;DHT22;6852;51.686;5.314;2023-06-10T10:30:54;31.40;99.90
13561;DHT22;6852;51.686;5.314;2023-06-10T10:33:42;31.30;99.90
13561;DHT22;6852;51.686;5.314;2023-06-10T10:36:12;31.30;99.90
13561;DHT22;6852;51.686;5.314;2023-06-10T10:38:41;31.60;99.90
13561;DHT22;6852;51.686;5.314;2023-06-10T10:41:08;31.20;99.90
13561;DHT22;6852;51.686;5.314;2023-06-10T10:43:36;31.90;99.90
13561;DHT22;6852;51.686;5.314;2023-06-10T10:46:12;31.90;99.90
13561;DHT22;6852;51.686;5.314;2023-06-10T10:48:40;32.00;99.90
13561;DHT22;6852;51.686;5.314;2023-06-10T10:51:10;32.10;99.90
13561;DHT22;6852;51.686;5.314;2023-06-10T10:53:38;31.60;99.90
13561;DHT22;6852;51.686;5.314;2023-06-10T10:56:08;32.00;99.90
13561;DHT22;6852;51.686;5.314;2023-06-10T10:58:37;32.20;99.90
13561;DHT22;6852;51.686;5.314;2023-06-10T11:01:12;31.70;99.90
13561;DHT22;6852;51.686;5.314;2023-06-10T11:03:44;32.80;99.90
13561;DHT22;6852;51.686;5.314;2023-06-10T11:06:15;32.40;99.90
13561;DHT22;6852;51.686;5.314;2023-06-10T11:11:22;32.40;99.90
13561;DHT22;6852;51.686;5.314;2023-06-10T11:16:38;32.50;99.90
13561;DHT22;6852;51.686;5.314;2023-06-10T11:19:06;33.30;99.90
13561;DHT22;6852;51.686;5.314;2023-06-10T11:24:23;33.10;99.90
13561;DHT22;6852;51.686;5.314;2023-06-10T11:26:50;32.40;99.90
13561;DHT22;6852;51.686;5.314;2023-06-10T11:29:17;32.70;99.90
13561;DHT22;6852;51.686;5.314;2023-06-10T11:31:46;32.80;99.90
13561;DHT22;6852;51.686;5.314;2023-06-10T11:34:21;33.80;99.90
13561;DHT22;6852;51.686;5.314;2023-06-10T11:36:51;33.50;99.90
13561;DHT22;6852;51.686;5.314;2023-06-10T11:39:20;34.00;99.90
13561;DHT22;6852;51.686;5.314;2023-06-10T11:41:47;33.30;99.90
13561;DHT22;6852;51.686;5.314;2023-06-10T11:44:15;33.90;99.90
13561;DHT22;6852;51.686;5.314;2023-06-10T11:46:47;34.80;99.90
13561;DHT22;6852;51.686;5.314;2023-06-10T11:49:20;33.90;99.90
13561;DHT22;6852;51.686;5.314;2023-06-10T11:51:47;34.10;99.90
13561;DHT22;6852;51.686;5.314;2023-06-10T11:54:18;34.80;99.90
13561;DHT22;6852;51.686;5.314;2023-06-10T11:56:46;34.50;99.90
13561;DHT22;6852;51.686;5.314;2023-06-10T11:59:13;34.70;99.90
13561;DHT22;6852;51.686;5.314;2023-06-10T12:01:44;35.10;99.90
13561;DHT22;6852;51.686;5.314;2023-06-10T12:04:14;34.30;99.90
13561;DHT22;6852;51.686;5.314;2023-06-10T12:06:50;34.20;99.90
13561;DHT22;6852;51.686;5.314;2023-06-10T12:09:28;33.60;99.90
13561;DHT22;6852;51.686;5.314;2023-06-10T12:12:00;33.30;99.90
13561;DHT22;6852;51.686;5.314;2023-06-10T12:17:23;33.10;99.90
13561;DHT22;6852;51.686;5.314;2023-06-10T12:19:51;33.50;99.90
13561;DHT22;6852;51.686;5.314;2023-06-10T12:22:18;33.60;99.90
13561;DHT22;6852;51.686;5.314;2023-06-10T12:27:26;34.10;99.90
13561;DHT22;6852;51.686;5.314;2023-06-10T12:29:55;34.50;99.90
13561;DHT22;6852;51.686;5.314;2023-06-10T12:32:35;33.90;99.90
13561;DHT22;6852;51.686;5.314;2023-06-10T12:35:03;34.30;99.90
13561;DHT22;6852;51.686;5.314;2023-06-10T12:37:31;34.40;99.90
13561;DHT22;6852;51.686;5.314;2023-06-10T12:40:05;34.10;99.90
13561;DHT22;6852;51.686;5.314;2023-06-10T12:42:33;34.60;99.90
13561;DHT22;6852;51.686;5.314;2023-06-10T12:45:04;34.60;99.90
13561;DHT22;6852;51.686;5.314;2023-06-10T12:47:35;34.40;99.90
13561;DHT22;6852;51.686;5.314;2023-06-10T12:50:06;34.10;99.90
13561;DHT22;6852;51.686;5.314;2023-06-10T12:52:34;34.50;99.90
13561;DHT22;6852;51.686;5.314;2023-06-10T12:55:01;34.30;99.90
13561;DHT22;6852;51.686;5.314;2023-06-10T12:57:28;34.30;99.90
13561;DHT22;6852;51.686;5.314;2023-06-10T12:59:56;34.00;99.90
13561;DHT22;6852;51.686;5.314;2023-06-10T13:02:30;33.60;99.90
13561;DHT22;6852;51.686;5.314;2023-06-10T13:04:58;33.30;99.90
13561;DHT22;6852;51.686;5.314;2023-06-10T13:07:25;33.90;99.90
13561;DHT22;6852;51.686;5.314;2023-06-10T13:09:53;34.40;99.90
13561;DHT22;6852;51.686;5.314;2023-06-10T13:12:24;33.20;99.90
13561;DHT22;6852;51.686;5.314;2023-06-10T13:15:12;33.30;99.90
13561;DHT22;6852;51.686;5.314;2023-06-10T13:17:39;33.30;99.90
13561;DHT22;6852;51.686;5.314;2023-06-10T13:20:07;33.20;99.90
13561;DHT22;6852;51.686;5.314;2023-06-10T13:22:34;33.70;99.90
13561;DHT22;6852;51.686;5.314;2023-06-10T13:25:02;33.80;99.90
13561;DHT22;6852;51.686;5.314;2023-06-10T13:27:30;33.50;99.90
13561;DHT22;6852;51.686;5.314;2023-06-10T13:29:57;32.90;99.90
13561;DHT22;6852;51.686;5.314;2023-06-10T13:32:24;33.00;99.90
13561;DHT22;6852;51.686;5.314;2023-06-10T13:34:51;33.30;99.90
13561;DHT22;6852;51.686;5.314;2023-06-10T13:37:19;32.60;99.90
13561;DHT22;6852;51.686;5.314;2023-06-10T13:39:47;32.80;99.90
13561;DHT22;6852;51.686;5.314;2023-06-10T13:42:15;33.40;99.90
13561;DHT22;6852;51.686;5.314;2023-06-10T13:44:42;33.60;99.90
13561;DHT22;6852;51.686;5.314;2023-06-10T13:47:09;33.20;99.90
13561;DHT22;6852;51.686;5.314;2023-06-10T13:49:36;32.70;99.90
13561;DHT22;6852;51.686;5.314;2023-06-10T13:52:04;32.70;99.90
13561;DHT22;6852;51.686;5.314;2023-06-10T13:54:31;33.30;99.90
13561;DHT22;6852;51.686;5.314;2023-06-10T13:56:58;32.60;99.90
13561;DHT22;6852;51.686;5.314;2023-06-10T13:59:26;32.40;99.90
13561;DHT22;6852;51.686;5.314;2023-06-10T14:01:53;32.50;99.90
13561;DHT22;6852;51.686;5.314;2023-06-10T14:04:21;32.70;99.90
13561;DHT22;6852;51.686;5.314;2023-06-10T14:06:48;32.30;99.90
13561;DHT22;6852;51.686;5.314;2023-06-10T14:09:15;32.20;99.90
13561;DHT22;6852;51.686;5.314;2023-06-10T14:11:43;32.40;99.90
13561;DHT22;6852;51.686;5.314;2023-06-10T14:14:10;33.10;99.90
13561;DHT22;6852;51.686;5.314;2023-06-10T14:16:37;32.80;99.90
13561;DHT22;6852;51.686;5.314;2023-06-10T14:19:08;32.70;99.90
13561;DHT22;6852;51.686;5.314;2023-06-10T14:21:36;32.40;99.90
13561;DHT22;6852;51.686;5.314;2023-06-10T14:24:02;32.10;99.90
13561;DHT22;6852;51.686;5.314;2023-06-10T14:26:30;32.00;99.90
13561;DHT22;6852;51.686;5.314;2023-06-10T14:28:58;32.10;99.90
13561;DHT22;6852;51.686;5.314;2023-06-10T14:31:25;31.80;99.90
13561;DHT22;6852;51.686;5.314;2023-06-10T14:33:52;32.00;99.90
13561;DHT22;6852;51.686;5.314;2023-06-10T14:36:19;32.00;99.90
13561;DHT22;6852;51.686;5.314;2023-06-10T14:38:46;32.10;99.90
13561;DHT22;6852;51.686;5.314;2023-06-10T14:41:13;32.00;99.90
13561;DHT22;6852;51.686;5.314;2023-06-10T14:43:40;31.80;99.90
13561;DHT22;6852;51.686;5.314;2023-06-10T14:46:07;31.50;99.90
13561;DHT22;6852;51.686;5.314;2023-06-10T14:48:34;31.40;99.90
13561;DHT22;6852;51.686;5.314;2023-06-10T14:51:01;31.20;99.90
13561;DHT22;6852;51.686;5.314;2023-06-10T14:53:29;31.40;99.90
13561;DHT22;6852;51.686;5.314;2023-06-10T14:56:00;31.50;99.90
13561;DHT22;6852;51.686;5.314;2023-06-10T14:58:27;31.50;99.90
13561;DHT22;6852;51.686;5.314;2023-06-10T15:00:55;31.30;99.90
13561;DHT22;6852;51.686;5.314;2023-06-10T15:03:22;31.00;99.90
13561;DHT22;6852;51.686;5.314;2023-06-10T15:05:48;30.80;99.90
13561;DHT22;6852;51.686;5.314;2023-06-10T15:08:15;30.90;99.90
13561;DHT22;6852;51.686;5.314;2023-06-10T15:10:43;30.90;99.90
13561;DHT22;6852;51.686;5.314;2023-06-10T15:13:10;31.10;99.90
13561;DHT22;6852;51.686;5.314;2023-06-10T15:15:37;30.90;99.90
13561;DHT22;6852;51.686;5.314;2023-06-10T15:18:04;31.00;99.90
13561;DHT22;6852;51.686;5.314;2023-06-10T15:20:31;30.90;99.90
13561;DHT22;6852;51.686;5.314;2023-06-10T15:22:58;30.80;99.90
13561;DHT22;6852;51.686;5.314;2023-06-10T15:25:25;30.80;99.90
13561;DHT22;6852;51.686;5.314;2023-06-10T15:27:57;30.80;99.90
13561;DHT22;6852;51.686;5.314;2023-06-10T15:30:25;30.80;99.90
13561;DHT22;6852;51.686;5.314;2023-06-10T15:32:52;30.90;99.90
13561;DHT22;6852;51.686;5.314;2023-06-10T15:35:19;30.50;99.90
13561;DHT22;6852;51.686;5.314;2023-06-10T15:37:46;30.50;99.90
13561;DHT22;6852;51.686;5.314;2023-06-10T15:40:13;30.40;99.90
13561;DHT22;6852;51.686;5.314;2023-06-10T15:42:40;30.50;99.90
13561;DHT22;6852;51.686;5.314;2023-06-10T15:45:08;30.60;99.90
13561;DHT22;6852;51.686;5.314;2023-06-10T15:47:36;30.50;99.90
13561;DHT22;6852;51.686;5.314;2023-06-10T15:50:03;30.60;99.90
13561;DHT22;6852;51.686;5.314;2023-06-10T15:52:31;30.40;99.90
13561;DHT22;6852;51.686;5.314;2023-06-10T15:54:58;30.40;99.90
13561;DHT22;6852;51.686;5.314;2023-06-10T15:57:25;30.50;99.90
13561;DHT22;6852;51.686;5.314;2023-06-10T15:59:53;30.30;99.90
13561;DHT22;6852;51.686;5.314;2023-06-10T16:02:23;30.40;99.90
13561;DHT22;6852;51.686;5.314;2023-06-10T16:04:50;30.50;99.90
13561;DHT22;6852;51.686;5.314;2023-06-10T16:07:17;30.40;99.90
13561;DHT22;6852;51.686;5.314;2023-06-10T16:09:44;30.40;99.90
13561;DHT22;6852;51.686;5.314;2023-06-10T16:12:11;30.20;99.90